createdAt,value
2023-04-22T00:00:00.000Z,12.21
2023-04-22T00:15:00.000Z,9.38
2023-04-22T00:30:00.000Z,9.4
2023-04-22T00:45:00.000Z,8.99
2023-04-22T01:00:00.000Z,9.4
2023-04-22T01:15:00.000Z,10.95
2023-04-22T01:30:00.000Z,10.19
2023-04-22T01:45:00.000Z,10.86
2023-04-22T02:00:00.000Z,11.33
2023-04-22T02:15:00.000Z,10.31
2023-04-22T02:30:00.000Z,10.21
2023-04-22T02:45:00.000Z,10.16
2023-04-22T03:00:00.000Z,9.87
2023-04-22T03:15:00.000Z,9.73
2023-04-22T03:30:00.000Z,9.66
2023-04-22T03:45:00.000Z,10.05
2023-04-22T04:00:00.000Z,9.55
2023-04-22T04:15:00.000Z,10.05
2023-04-22T04:30:00.000Z,9.74
2023-04-22T04:45:00.000Z,9.92
2023-04-22T05:00:00.000Z,10
2023-04-22T05:15:00.000Z,9.99
2023-04-22T05:30:00.000Z,8.55
2023-04-22T05:45:00.000Z,8.2
2023-04-22T06:00:00.000Z,7.52
2023-04-22T06:15:00.000Z,8
2023-04-22T06:30:00.000Z,7.62
2023-04-22T06:45:00.000Z,7.49
2023-04-22T07:00:00.000Z,7.19
2023-04-22T07:15:00.000Z,7.47
2023-04-22T07:30:00.000Z,7.28
2023-04-22T07:45:00.000Z,7.06
2023-04-22T08:00:00.000Z,7.28
2023-04-22T08:15:00.000Z,7.04
2023-04-22T08:30:00.000Z,6.52
2023-04-22T08:45:00.000Z,5.54
2023-04-22T09:00:00.000Z,5.8
2023-04-22T09:15:00.000Z,4.89
2023-04-22T09:30:00.000Z,5.22
2023-04-22T09:45:00.000Z,7.52
2023-04-22T10:00:00.000Z,7.04
2023-04-22T10:15:00.000Z,6.54
2023-04-22T10:30:00.000Z,6.41
2023-04-22T10:45:00.000Z,6.58
2023-04-22T11:00:00.000Z,7.06
2023-04-22T11:15:00.000Z,7.05
2023-04-22T11:30:00.000Z,6.84
2023-04-22T11:45:00.000Z,6.21
2023-04-22T12:00:00.000Z,5.76
2023-04-22T12:15:00.000Z,5.41
2023-04-22T12:30:00.000Z,5.67
2023-04-22T12:45:00.000Z,6.13
2023-04-22T13:00:00.000Z,6.29
2023-04-22T13:15:00.000Z,5.28
2023-04-22T13:30:00.000Z,5.68
2023-04-22T13:45:00.000Z,5.78
2023-04-22T14:00:00.000Z,4.49
2023-04-22T14:15:00.000Z,4.66
2023-04-22T14:30:00.000Z,4.75
2023-04-22T14:45:00.000Z,5.82
2023-04-22T15:00:00.000Z,4.86
2023-04-22T15:15:00.000Z,4.98
2023-04-22T15:30:00.000Z,5.88
2023-04-22T15:45:00.000Z,5.93
2023-04-22T16:00:00.000Z,8.18
2023-04-22T16:15:00.000Z,8.01
2023-04-22T16:30:00.000Z,11.74
2023-04-22T16:45:00.000Z,7.61
2023-04-22T17:00:00.000Z,7.74
2023-04-22T17:15:00.000Z,8.54
2023-04-22T17:30:00.000Z,8.36
2023-04-22T17:45:00.000Z,9.41
2023-04-22T18:00:00.000Z,9.15
2023-04-22T18:15:00.000Z,8.56
2023-04-22T18:30:00.000Z,7.6
2023-04-22T18:45:00.000Z,8.73
2023-04-22T19:00:00.000Z,8.86
2023-04-22T19:15:00.000Z,8.59
2023-04-22T19:30:00.000Z,9.56
2023-04-22T19:45:00.000Z,10.88
2023-04-22T20:00:00.000Z,11.47
2023-04-22T20:15:00.000Z,13.42
2023-04-22T20:30:00.000Z,9.78
2023-04-22T20:45:00.000Z,9.53
2023-04-22T21:00:00.000Z,11.01
2023-04-22T21:15:00.000Z,10.24
2023-04-22T21:30:00.000Z,10.48
2023-04-22T21:45:00.000Z,11.07
2023-04-22T22:00:00.000Z,12.85
2023-04-22T22:15:00.000Z,11.36
2023-04-22T22:30:00.000Z,10.36
2023-04-22T22:45:00.000Z,11.54
2023-04-22T23:00:00.000Z,10.67
2023-04-22T23:15:00.000Z,10.08
2023-04-22T23:30:00.000Z,10.19
2023-04-22T23:45:00.000Z,10.13
